sensor_id;sensor_type;location;lat;lon;timestamp;temperature;humidity
71237;DHT22;58984;51.960;5.582;2023-04-24T00:00:25;17.10;57.60
71237;DHT22;58984;51.960;5.582;2023-04-24T00:02:51;17.20;57.60
71237;DHT22;58984;51.960;5.582;2023-04-24T00:05:17;17.10;58.10
71237;DHT22;58984;51.960;5.582;2023-04-24T00:07:44;17.10;57.50
71237;DHT22;58984;51.960;5.582;2023-04-24T00:10:10;17.10;57.60
71237;DHT22;58984;51.960;5.582;2023-04-24T00:12:36;17.10;57.60
71237;DHT22;58984;51.960;5.582;2023-04-24T00:15:02;17.10;57.50
71237;DHT22;58984;51.960;5.582;2023-04-24T00:17:28;17.10;57.70
71237;DHT22;58984;51.960;5.582;2023-04-24T00:19:54;17.10;57.60
71237;DHT22;58984;51.960;5.582;2023-04-24T00:22:26;17.10;57.60
71237;DHT22;58984;51.960;5.582;2023-04-24T00:24:52;17.10;57.60
71237;DHT22;58984;51.960;5.582;2023-04-24T00:27:17;17.10;57.60
71237;DHT22;58984;51.960;5.582;2023-04-24T00:29:43;17.10;57.60
71237;DHT22;58984;51.960;5.582;2023-04-24T00:32:08;17.00;57.60
71237;DHT22;58984;51.960;5.582;2023-04-24T00:34:34;17.10;57.60
71237;DHT22;58984;51.960;5.582;2023-04-24T00:36:59;17.10;57.70
71237;DHT22;58984;51.960;5.582;2023-04-24T00:39:25;17.00;57.60
71237;DHT22;58984;51.960;5.582;2023-04-24T00:41:51;17.00;57.70
71237;DHT22;58984;51.960;5.582;2023-04-24T00:44:17;17.00;57.70
71237;DHT22;58984;51.960;5.582;2023-04-24T00:46:43;17.00;57.70
71237;DHT22;58984;51.960;5.582;2023-04-24T00:49:09;17.00;57.80
71237;DHT22;58984;51.960;5.582;2023-04-24T00:51:34;17.00;57.70
71237;DHT22;58984;51.960;5.582;2023-04-24T00:54:02;17.00;57.70
71237;DHT22;58984;51.960;5.582;2023-04-24T00:56:28;17.00;57.70
71237;DHT22;58984;51.960;5.582;2023-04-24T00:58:54;17.00;57.80
71237;DHT22;58984;51.960;5.582;2023-04-24T01:01:21;17.00;57.70
71237;DHT22;58984;51.960;5.582;2023-04-24T01:03:47;16.90;57.70
71237;DHT22;58984;51.960;5.582;2023-04-24T01:06:14;16.90;57.70
71237;DHT22;58984;51.960;5.582;2023-04-24T01:08:41;16.90;57.70
71237;DHT22;58984;51.960;5.582;2023-04-24T01:11:07;16.90;57.70
71237;DHT22;58984;51.960;5.582;2023-04-24T01:13:33;16.90;57.60
71237;DHT22;58984;51.960;5.582;2023-04-24T01:15:59;16.90;57.70
71237;DHT22;58984;51.960;5.582;2023-04-24T01:18:26;16.90;57.80
71237;DHT22;58984;51.960;5.582;2023-04-24T01:20:53;16.90;57.70
71237;DHT22;58984;51.960;5.582;2023-04-24T01:23:21;16.90;57.70
71237;DHT22;58984;51.960;5.582;2023-04-24T01:25:48;16.90;57.70
71237;DHT22;58984;51.960;5.582;2023-04-24T01:28:14;16.90;57.70
71237;DHT22;58984;51.960;5.582;2023-04-24T01:30:40;16.90;57.70
71237;DHT22;58984;51.960;5.582;2023-04-24T01:33:06;16.90;57.70
71237;DHT22;58984;51.960;5.582;2023-04-24T01:35:32;16.90;57.80
71237;DHT22;58984;51.960;5.582;2023-04-24T01:37:57;16.80;57.70
71237;DHT22;58984;51.960;5.582;2023-04-24T01:40:23;16.80;57.70
71237;DHT22;58984;51.960;5.582;2023-04-24T01:42:49;16.80;57.80
71237;DHT22;58984;51.960;5.582;2023-04-24T01:45:14;16.80;57.80
71237;DHT22;58984;51.960;5.582;2023-04-24T01:47:40;16.80;57.80
71237;DHT22;58984;51.960;5.582;2023-04-24T01:50:06;16.80;57.90
71237;DHT22;58984;51.960;5.582;2023-04-24T01:52:32;16.80;57.80
71237;DHT22;58984;51.960;5.582;2023-04-24T01:55:02;16.80;57.90
71237;DHT22;58984;51.960;5.582;2023-04-24T01:57:29;16.70;57.90
71237;DHT22;58984;51.960;5.582;2023-04-24T01:59:55;16.80;58.00
71237;DHT22;58984;51.960;5.582;2023-04-24T02:02:21;16.80;58.10
71237;DHT22;58984;51.960;5.582;2023-04-24T02:04:52;16.80;58.10
71237;DHT22;58984;51.960;5.582;2023-04-24T02:07:17;16.80;58.00
71237;DHT22;58984;51.960;5.582;2023-04-24T02:09:43;16.80;58.10
71237;DHT22;58984;51.960;5.582;2023-04-24T02:12:09;16.80;58.20
71237;DHT22;58984;51.960;5.582;2023-04-24T02:14:35;16.80;58.20
71237;DHT22;58984;51.960;5.582;2023-04-24T02:17:00;16.70;58.10
71237;DHT22;58984;51.960;5.582;2023-04-24T02:19:26;16.70;58.10
71237;DHT22;58984;51.960;5.582;2023-04-24T02:21:52;16.70;58.20
71237;DHT22;58984;51.960;5.582;2023-04-24T02:24:17;16.70;58.10
71237;DHT22;58984;51.960;5.582;2023-04-24T02:26:43;16.70;58.20
71237;DHT22;58984;51.960;5.582;2023-04-24T02:29:08;16.70;58.30
71237;DHT22;58984;51.960;5.582;2023-04-24T02:31:34;16.70;58.40
71237;DHT22;58984;51.960;5.582;2023-04-24T02:33:59;16.70;58.30
71237;DHT22;58984;51.960;5.582;2023-04-24T02:36:25;16.70;58.40
71237;DHT22;58984;51.960;5.582;2023-04-24T02:38:50;16.70;58.40
71237;DHT22;58984;51.960;5.582;2023-04-24T02:41:16;16.70;58.40
71237;DHT22;58984;51.960;5.582;2023-04-24T02:43:42;16.70;59.00
71237;DHT22;58984;51.960;5.582;2023-04-24T02:46:07;16.70;58.40
71237;DHT22;58984;51.960;5.582;2023-04-24T02:48:33;16.70;58.40
71237;DHT22;58984;51.960;5.582;2023-04-24T02:50:58;16.70;58.40
71237;DHT22;58984;51.960;5.582;2023-04-24T02:53:24;16.70;58.40
71237;DHT22;58984;51.960;5.582;2023-04-24T02:55:50;16.60;58.20
71237;DHT22;58984;51.960;5.582;2023-04-24T02:58:15;16.70;58.30
71237;DHT22;58984;51.960;5.582;2023-04-24T03:00:42;16.70;58.20
71237;DHT22;58984;51.960;5.582;2023-04-24T03:03:08;16.60;58.20
71237;DHT22;58984;51.960;5.582;2023-04-24T03:05:34;16.60;58.20
71237;DHT22;58984;51.960;5.582;2023-04-24T03:07:59;16.60;58.20
71237;DHT22;58984;51.960;5.582;2023-04-24T03:10:25;16.60;58.30
71237;DHT22;58984;51.960;5.582;2023-04-24T03:12:50;16.60;58.30
71237;DHT22;58984;51.960;5.582;2023-04-24T03:15:16;16.60;58.30
71237;DHT22;58984;51.960;5.582;2023-04-24T03:17:42;16.60;58.30
71237;DHT22;58984;51.960;5.582;2023-04-24T03:20:08;16.60;58.30
71237;DHT22;58984;51.960;5.582;2023-04-24T03:22:34;16.70;58.40
71237;DHT22;58984;51.960;5.582;2023-04-24T03:25:00;16.60;58.40
71237;DHT22;58984;51.960;5.582;2023-04-24T03:27:26;16.60;58.40
71237;DHT22;58984;51.960;5.582;2023-04-24T03:29:51;16.60;58.30
71237;DHT22;58984;51.960;5.582;2023-04-24T03:32:21;16.60;58.40
71237;DHT22;58984;51.960;5.582;2023-04-24T03:34:46;16.60;58.40
71237;DHT22;58984;51.960;5.582;2023-04-24T03:37:12;16.60;58.40
71237;DHT22;58984;51.960;5.582;2023-04-24T03:39:37;16.60;58.40
71237;DHT22;58984;51.960;5.582;2023-04-24T03:42:03;16.60;58.40
71237;DHT22;58984;51.960;5.582;2023-04-24T03:44:28;16.50;58.40
71237;DHT22;58984;51.960;5.582;2023-04-24T03:46:54;16.50;58.40
71237;DHT22;58984;51.960;5.582;2023-04-24T03:49:20;16.60;58.50
71237;DHT22;58984;51.960;5.582;2023-04-24T03:51:45;16.50;58.40
71237;DHT22;58984;51.960;5.582;2023-04-24T03:54:11;16.50;58.30
71237;DHT22;58984;51.960;5.582;2023-04-24T03:56:37;16.50;58.40
71237;DHT22;58984;51.960;5.582;2023-04-24T03:59:02;16.50;58.40
71237;DHT22;58984;51.960;5.582;2023-04-24T04:01:28;16.50;58.40
71237;DHT22;58984;51.960;5.582;2023-04-24T04:03:53;16.50;58.40
71237;DHT22;58984;51.960;5.582;2023-04-24T04:06:19;16.50;58.40
71237;DHT22;58984;51.960;5.582;2023-04-24T04:08:46;16.40;58.40
71237;DHT22;58984;51.960;5.582;2023-04-24T04:11:12;16.40;58.40
71237;DHT22;58984;51.960;5.582;2023-04-24T04:13:37;16.40;58.40
71237;DHT22;58984;51.960;5.582;2023-04-24T04:16:03;16.40;58.40
71237;DHT22;58984;51.960;5.582;2023-04-24T04:18:29;16.40;58.40
71237;DHT22;58984;51.960;5.582;2023-04-24T04:20:54;16.40;59.00
71237;DHT22;58984;51.960;5.582;2023-04-24T04:23:20;16.40;58.40
71237;DHT22;58984;51.960;5.582;2023-04-24T04:25:45;16.40;58.50
71237;DHT22;58984;51.960;5.582;2023-04-24T04:28:12;16.40;58.40
71237;DHT22;58984;51.960;5.582;2023-04-24T04:30:37;16.40;58.40
71237;DHT22;58984;51.960;5.582;2023-04-24T04:33:03;16.40;58.50
71237;DHT22;58984;51.960;5.582;2023-04-24T04:35:29;16.40;58.50
71237;DHT22;58984;51.960;5.582;2023-04-24T04:37:54;16.40;58.40
71237;DHT22;58984;51.960;5.582;2023-04-24T04:40:24;16.40;58.50
71237;DHT22;58984;51.960;5.582;2023-04-24T04:42:50;16.30;58.40
71237;DHT22;58984;51.960;5.582;2023-04-24T04:45:18;16.30;58.40
71237;DHT22;58984;51.960;5.582;2023-04-24T04:47:44;16.30;58.40
71237;DHT22;58984;51.960;5.582;2023-04-24T04:50:09;16.30;58.40
71237;DHT22;58984;51.960;5.582;2023-04-24T04:52:35;16.40;58.50
71237;DHT22;58984;51.960;5.582;2023-04-24T04:55:01;16.30;58.40
71237;DHT22;58984;51.960;5.582;2023-04-24T04:57:27;16.30;58.40
71237;DHT22;58984;51.960;5.582;2023-04-24T04:59:53;16.30;58.40
71237;DHT22;58984;51.960;5.582;2023-04-24T05:02:18;16.30;58.40
71237;DHT22;58984;51.960;5.582;2023-04-24T05:04:44;16.30;58.40
71237;DHT22;58984;51.960;5.582;2023-04-24T05:07:10;16.30;58.50
71237;DHT22;58984;51.960;5.582;2023-04-24T05:09:36;16.30;58.40
71237;DHT22;58984;51.960;5.582;2023-04-24T05:12:02;16.30;58.50
71237;DHT22;58984;51.960;5.582;2023-04-24T05:14:28;16.20;58.40
71237;DHT22;58984;51.960;5.582;2023-04-24T05:16:54;16.20;58.40
71237;DHT22;58984;51.960;5.582;2023-04-24T05:19:19;16.20;58.40
71237;DHT22;58984;51.960;5.582;2023-04-24T05:21:45;16.20;58.50
71237;DHT22;58984;51.960;5.582;2023-04-24T05:24:10;16.30;58.50
71237;DHT22;58984;51.960;5.582;2023-04-24T05:26:36;16.20;58.50
71237;DHT22;58984;51.960;5.582;2023-04-24T05:29:02;16.20;58.40
71237;DHT22;58984;51.960;5.582;2023-04-24T05:31:28;16.20;58.50
71237;DHT22;58984;51.960;5.582;2023-04-24T05:33:53;16.20;58.50
71237;DHT22;58984;51.960;5.582;2023-04-24T05:36:19;16.20;58.60
71237;DHT22;58984;51.960;5.582;2023-04-24T05:38:45;16.20;58.60
71237;DHT22;58984;51.960;5.582;2023-04-24T05:41:10;16.20;58.60
71237;DHT22;58984;51.960;5.582;2023-04-24T05:43:36;16.20;58.60
71237;DHT22;58984;51.960;5.582;2023-04-24T05:46:01;16.20;58.70
71237;DHT22;58984;51.960;5.582;2023-04-24T05:48:27;16.20;58.60
71237;DHT22;58984;51.960;5.582;2023-04-24T05:50:52;16.20;58.60
71237;DHT22;58984;51.960;5.582;2023-04-24T05:53:18;16.20;58.60
71237;DHT22;58984;51.960;5.582;2023-04-24T05:55:44;16.20;58.60
71237;DHT22;58984;51.960;5.582;2023-04-24T05:58:11;16.20;58.20
71237;DHT22;58984;51.960;5.582;2023-04-24T06:00:36;16.20;58.70
71237;DHT22;58984;51.960;5.582;2023-04-24T06:03:03;16.20;58.80
71237;DHT22;58984;51.960;5.582;2023-04-24T06:05:29;16.20;58.70
71237;DHT22;58984;51.960;5.582;2023-04-24T06:07:55;16.20;58.80
71237;DHT22;58984;51.960;5.582;2023-04-24T06:10:21;16.20;58.80
71237;DHT22;58984;51.960;5.582;2023-04-24T06:12:46;16.20;58.80
71237;DHT22;58984;51.960;5.582;2023-04-24T06:15:12;16.20;58.80
71237;DHT22;58984;51.960;5.582;2023-04-24T06:17:38;16.20;58.80
71237;DHT22;58984;51.960;5.582;2023-04-24T06:20:04;16.20;58.90
71237;DHT22;58984;51.960;5.582;2023-04-24T06:22:31;16.20;58.90
71237;DHT22;58984;51.960;5.582;2023-04-24T06:24:57;16.20;58.90
71237;DHT22;58984;51.960;5.582;2023-04-24T06:27:22;16.20;58.90
71237;DHT22;58984;51.960;5.582;2023-04-24T06:29:48;16.20;59.00
71237;DHT22;58984;51.960;5.582;2023-04-24T06:32:22;16.20;59.00
71237;DHT22;58984;51.960;5.582;2023-04-24T06:34:49;16.20;59.00
71237;DHT22;58984;51.960;5.582;2023-04-24T06:37:14;16.20;59.00
71237;DHT22;58984;51.960;5.582;2023-04-24T06:39:41;16.20;59.00
71237;DHT22;58984;51.960;5.582;2023-04-24T06:42:07;16.20;59.00
71237;DHT22;58984;51.960;5.582;2023-04-24T06:44:35;16.20;59.00
71237;DHT22;58984;51.960;5.582;2023-04-24T06:47:09;16.20;59.00
71237;DHT22;58984;51.960;5.582;2023-04-24T06:49:39;16.20;58.90
71237;DHT22;58984;51.960;5.582;2023-04-24T06:52:05;16.20;58.90
71237;DHT22;58984;51.960;5.582;2023-04-24T06:54:31;16.20;58.90
71237;DHT22;58984;51.960;5.582;2023-04-24T06:56:58;16.20;58.90
71237;DHT22;58984;51.960;5.582;2023-04-24T06:59:24;16.20;58.90
71237;DHT22;58984;51.960;5.582;2023-04-24T07:01:50;16.20;58.90
71237;DHT22;58984;51.960;5.582;2023-04-24T07:04:16;16.20;58.90
71237;DHT22;58984;51.960;5.582;2023-04-24T07:06:43;16.10;58.80
71237;DHT22;58984;51.960;5.582;2023-04-24T07:09:09;16.20;58.90
71237;DHT22;58984;51.960;5.582;2023-04-24T07:11:35;16.20;58.90
71237;DHT22;58984;51.960;5.582;2023-04-24T07:14:03;16.10;58.90
71237;DHT22;58984;51.960;5.582;2023-04-24T07:16:28;16.10;59.00
71237;DHT22;58984;51.960;5.582;2023-04-24T07:18:55;16.10;58.90
71237;DHT22;58984;51.960;5.582;2023-04-24T07:21:20;16.10;58.80
71237;DHT22;58984;51.960;5.582;2023-04-24T07:23:46;16.10;58.90
71237;DHT22;58984;51.960;5.582;2023-04-24T07:26:12;16.10;58.90
71237;DHT22;58984;51.960;5.582;2023-04-24T07:28:39;16.10;59.50
71237;DHT22;58984;51.960;5.582;2023-04-24T07:31:05;16.10;58.90
71237;DHT22;58984;51.960;5.582;2023-04-24T07:33:31;16.10;58.90
71237;DHT22;58984;51.960;5.582;2023-04-24T07:35:57;16.10;58.90
71237;DHT22;58984;51.960;5.582;2023-04-24T07:38:22;16.10;58.90
71237;DHT22;58984;51.960;5.582;2023-04-24T07:40:48;16.10;58.90
71237;DHT22;58984;51.960;5.582;2023-04-24T07:43:14;16.10;58.90
71237;DHT22;58984;51.960;5.582;2023-04-24T07:45:40;16.10;58.90
71237;DHT22;58984;51.960;5.582;2023-04-24T07:48:06;16.10;59.00
71237;DHT22;58984;51.960;5.582;2023-04-24T07:50:31;16.10;58.90
71237;DHT22;58984;51.960;5.582;2023-04-24T07:52:57;16.10;58.80
71237;DHT22;58984;51.960;5.582;2023-04-24T07:55:23;16.10;58.80
71237;DHT22;58984;51.960;5.582;2023-04-24T07:57:49;16.10;58.90
71237;DHT22;58984;51.960;5.582;2023-04-24T08:00:15;16.10;58.80
71237;DHT22;58984;51.960;5.582;2023-04-24T08:02:40;16.10;58.80
71237;DHT22;58984;51.960;5.582;2023-04-24T08:05:06;16.10;58.80
71237;DHT22;58984;51.960;5.582;2023-04-24T08:07:32;16.10;58.80
71237;DHT22;58984;51.960;5.582;2023-04-24T08:09:58;16.00;58.70
71237;DHT22;58984;51.960;5.582;2023-04-24T08:12:24;16.10;58.80
71237;DHT22;58984;51.960;5.582;2023-04-24T08:14:50;16.10;58.80
71237;DHT22;58984;51.960;5.582;2023-04-24T08:17:17;16.00;58.70
71237;DHT22;58984;51.960;5.582;2023-04-24T08:19:42;16.00;58.70
71237;DHT22;58984;51.960;5.582;2023-04-24T08:22:13;16.00;58.70
71237;DHT22;58984;51.960;5.582;2023-04-24T08:24:38;16.00;58.70
71237;DHT22;58984;51.960;5.582;2023-04-24T08:27:04;16.00;58.80
71237;DHT22;58984;51.960;5.582;2023-04-24T08:29:30;16.00;58.80
71237;DHT22;58984;51.960;5.582;2023-04-24T08:31:55;16.00;58.90
71237;DHT22;58984;51.960;5.582;2023-04-24T08:34:21;16.00;58.90
71237;DHT22;58984;51.960;5.582;2023-04-24T08:36:47;16.00;58.90
71237;DHT22;58984;51.960;5.582;2023-04-24T08:39:14;16.00;58.80
71237;DHT22;58984;51.960;5.582;2023-04-24T08:41:41;16.00;58.80
71237;DHT22;58984;51.960;5.582;2023-04-24T08:44:09;16.00;58.80
71237;DHT22;58984;51.960;5.582;2023-04-24T08:46:35;16.00;58.90
71237;DHT22;58984;51.960;5.582;2023-04-24T08:49:02;16.00;58.90
71237;DHT22;58984;51.960;5.582;2023-04-24T08:51:29;16.00;58.90
71237;DHT22;58984;51.960;5.582;2023-04-24T08:53:57;16.00;58.90
71237;DHT22;58984;51.960;5.582;2023-04-24T08:56:23;16.00;58.90
71237;DHT22;58984;51.960;5.582;2023-04-24T08:58:51;16.10;59.00
71237;DHT22;58984;51.960;5.582;2023-04-24T09:01:19;16.00;59.10
71237;DHT22;58984;51.960;5.582;2023-04-24T09:03:47;16.00;59.00
71237;DHT22;58984;51.960;5.582;2023-04-24T09:06:15;16.00;59.00
71237;DHT22;58984;51.960;5.582;2023-04-24T09:08:42;16.00;59.00
71237;DHT22;58984;51.960;5.582;2023-04-24T09:11:09;16.00;58.90
71237;DHT22;58984;51.960;5.582;2023-04-24T09:13:35;16.00;58.90
71237;DHT22;58984;51.960;5.582;2023-04-24T09:16:01;16.00;58.90
71237;DHT22;58984;51.960;5.582;2023-04-24T09:18:26;16.00;58.90
71237;DHT22;58984;51.960;5.582;2023-04-24T09:23:28;16.00;59.00
71237;DHT22;58984;51.960;5.582;2023-04-24T09:25:56;16.00;58.90
71237;DHT22;58984;51.960;5.582;2023-04-24T09:28:40;16.00;58.90
71237;DHT22;58984;51.960;5.582;2023-04-24T09:31:11;16.00;58.90
71237;DHT22;58984;51.960;5.582;2023-04-24T09:33:38;16.00;58.80
71237;DHT22;58984;51.960;5.582;2023-04-24T09:36:04;16.10;59.00
71237;DHT22;58984;51.960;5.582;2023-04-24T09:38:36;16.00;58.80
71237;DHT22;58984;51.960;5.582;2023-04-24T09:41:03;16.00;58.80
71237;DHT22;58984;51.960;5.582;2023-04-24T09:43:30;16.10;58.90
71237;DHT22;58984;51.960;5.582;2023-04-24T09:45:57;16.10;58.90
71237;DHT22;58984;51.960;5.582;2023-04-24T09:48:31;16.00;58.90
71237;DHT22;58984;51.960;5.582;2023-04-24T09:50:57;16.00;59.00
71237;DHT22;58984;51.960;5.582;2023-04-24T09:53:28;16.10;59.00
71237;DHT22;58984;51.960;5.582;2023-04-24T09:55:54;16.00;59.00
71237;DHT22;58984;51.960;5.582;2023-04-24T09:58:28;16.10;59.00
71237;DHT22;58984;51.960;5.582;2023-04-24T10:00:55;16.00;59.00
71237;DHT22;58984;51.960;5.582;2023-04-24T10:03:24;16.10;59.10
71237;DHT22;58984;51.960;5.582;2023-04-24T10:05:51;16.10;59.10
71237;DHT22;58984;51.960;5.582;2023-04-24T10:08:17;16.10;59.10
71237;DHT22;58984;51.960;5.582;2023-04-24T10:10:45;16.10;59.10
71237;DHT22;58984;51.960;5.582;2023-04-24T10:13:12;16.10;59.10
71237;DHT22;58984;51.960;5.582;2023-04-24T10:15:39;16.10;59.10
71237;DHT22;58984;51.960;5.582;2023-04-24T10:18:06;16.10;59.20
71237;DHT22;58984;51.960;5.582;2023-04-24T10:20:33;16.20;59.20
71237;DHT22;58984;51.960;5.582;2023-04-24T10:22:59;16.20;59.30
71237;DHT22;58984;51.960;5.582;2023-04-24T10:25:30;16.20;59.20
71237;DHT22;58984;51.960;5.582;2023-04-24T10:27:56;16.20;59.10
71237;DHT22;58984;51.960;5.582;2023-04-24T10:30:27;16.20;59.10
71237;DHT22;58984;51.960;5.582;2023-04-24T10:32:53;16.20;59.10
71237;DHT22;58984;51.960;5.582;2023-04-24T10:35:19;16.20;59.10
71237;DHT22;58984;51.960;5.582;2023-04-24T10:37:54;16.20;59.00
71237;DHT22;58984;51.960;5.582;2023-04-24T10:40:31;16.20;59.00
71237;DHT22;58984;51.960;5.582;2023-04-24T10:42:57;16.20;58.90
71237;DHT22;58984;51.960;5.582;2023-04-24T10:45:24;16.20;58.80
71237;DHT22;58984;51.960;5.582;2023-04-24T10:48:01;16.20;58.80
71237;DHT22;58984;51.960;5.582;2023-04-24T10:50:43;16.20;58.90
71237;DHT22;58984;51.960;5.582;2023-04-24T10:53:13;16.20;58.80
71237;DHT22;58984;51.960;5.582;2023-04-24T10:58:07;16.30;58.40
71237;DHT22;58984;51.960;5.582;2023-04-24T11:00:36;16.30;58.60
71237;DHT22;58984;51.960;5.582;2023-04-24T11:03:05;16.20;58.60
71237;DHT22;58984;51.960;5.582;2023-04-24T11:08:37;16.20;58.80
71237;DHT22;58984;51.960;5.582;2023-04-24T11:11:11;16.30;58.60
71237;DHT22;58984;51.960;5.582;2023-04-24T11:16:25;16.20;58.70
71237;DHT22;58984;51.960;5.582;2023-04-24T11:18:52;16.30;58.70
71237;DHT22;58984;51.960;5.582;2023-04-24T11:21:25;16.20;58.60
71237;DHT22;58984;51.960;5.582;2023-04-24T11:23:51;16.30;58.60
71237;DHT22;58984;51.960;5.582;2023-04-24T11:26:22;16.20;58.60
71237;DHT22;58984;51.960;5.582;2023-04-24T11:28:50;16.20;58.60
71237;DHT22;58984;51.960;5.582;2023-04-24T11:31:39;16.30;58.70
71237;DHT22;58984;51.960;5.582;2023-04-24T11:34:13;16.20;58.80
71237;DHT22;58984;51.960;5.582;2023-04-24T11:36:42;16.30;58.90
71237;DHT22;58984;51.960;5.582;2023-04-24T11:39:08;16.30;58.90
71237;DHT22;58984;51.960;5.582;2023-04-24T11:41:33;16.30;58.80
71237;DHT22;58984;51.960;5.582;2023-04-24T11:43:59;16.30;58.80
71237;DHT22;58984;51.960;5.582;2023-04-24T11:46:29;16.30;58.90
71237;DHT22;58984;51.960;5.582;2023-04-24T11:48:56;16.40;59.00
71237;DHT22;58984;51.960;5.582;2023-04-24T11:51:26;16.40;59.00
71237;DHT22;58984;51.960;5.582;2023-04-24T11:53:53;16.40;59.00
71237;DHT22;58984;51.960;5.582;2023-04-24T11:56:25;16.40;58.80
71237;DHT22;58984;51.960;5.582;2023-04-24T11:58:54;16.50;58.80
71237;DHT22;58984;51.960;5.582;2023-04-24T12:01:20;16.50;58.60
71237;DHT22;58984;51.960;5.582;2023-04-24T12:03:50;16.50;58.60
71237;DHT22;58984;51.960;5.582;2023-04-24T12:06:16;16.40;58.40
71237;DHT22;58984;51.960;5.582;2023-04-24T12:08:46;16.50;58.20
71237;DHT22;58984;51.960;5.582;2023-04-24T12:11:14;16.40;58.10
71237;DHT22;58984;51.960;5.582;2023-04-24T12:13:40;16.50;58.30
71237;DHT22;58984;51.960;5.582;2023-04-24T12:16:06;16.50;58.40
71237;DHT22;58984;51.960;5.582;2023-04-24T12:18:31;16.50;58.50
71237;DHT22;58984;51.960;5.582;2023-04-24T12:21:18;16.50;58.50
71237;DHT22;58984;51.960;5.582;2023-04-24T12:23:44;16.40;58.40
71237;DHT22;58984;51.960;5.582;2023-04-24T12:26:11;16.50;58.80
71237;DHT22;58984;51.960;5.582;2023-04-24T12:28:38;16.50;58.10
71237;DHT22;58984;51.960;5.582;2023-04-24T12:31:04;16.50;58.00
71237;DHT22;58984;51.960;5.582;2023-04-24T12:33:35;16.50;58.10
71237;DHT22;58984;51.960;5.582;2023-04-24T12:36:01;16.50;58.10
71237;DHT22;58984;51.960;5.582;2023-04-24T12:38:28;16.50;58.20
71237;DHT22;58984;51.960;5.582;2023-04-24T12:41:06;16.50;58.20
71237;DHT22;58984;51.960;5.582;2023-04-24T12:43:32;16.50;58.10
71237;DHT22;58984;51.960;5.582;2023-04-24T12:45:58;16.50;58.00
71237;DHT22;58984;51.960;5.582;2023-04-24T12:48:25;16.50;58.00
71237;DHT22;58984;51.960;5.582;2023-04-24T12:50:50;16.50;58.00
71237;DHT22;58984;51.960;5.582;2023-04-24T12:53:16;16.50;57.90
71237;DHT22;58984;51.960;5.582;2023-04-24T12:55:41;16.50;57.90
71237;DHT22;58984;51.960;5.582;2023-04-24T12:58:07;16.50;57.80
71237;DHT22;58984;51.960;5.582;2023-04-24T13:00:33;16.50;57.90
71237;DHT22;58984;51.960;5.582;2023-04-24T13:02:59;16.50;57.80
71237;DHT22;58984;51.960;5.582;2023-04-24T13:05:24;16.50;57.80
71237;DHT22;58984;51.960;5.582;2023-04-24T13:07:50;16.50;57.70
71237;DHT22;58984;51.960;5.582;2023-04-24T13:10:16;16.50;57.80
71237;DHT22;58984;51.960;5.582;2023-04-24T13:12:41;16.50;57.80
71237;DHT22;58984;51.960;5.582;2023-04-24T13:15:10;16.50;57.80
71237;DHT22;58984;51.960;5.582;2023-04-24T13:17:36;16.50;57.70
71237;DHT22;58984;51.960;5.582;2023-04-24T13:20:02;16.50;57.70
71237;DHT22;58984;51.960;5.582;2023-04-24T13:22:28;16.40;57.60
71237;DHT22;58984;51.960;5.582;2023-04-24T13:24:53;16.40;57.50
71237;DHT22;58984;51.960;5.582;2023-04-24T13:27:19;16.50;57.70
71237;DHT22;58984;51.960;5.582;2023-04-24T13:29:45;16.50;57.60
71237;DHT22;58984;51.960;5.582;2023-04-24T13:32:11;16.50;57.70
71237;DHT22;58984;51.960;5.582;2023-04-24T13:34:37;16.50;57.70
71237;DHT22;58984;51.960;5.582;2023-04-24T13:37:06;16.40;57.70
71237;DHT22;58984;51.960;5.582;2023-04-24T13:39:33;16.50;57.70
71237;DHT22;58984;51.960;5.582;2023-04-24T13:41:58;16.50;57.70
71237;DHT22;58984;51.960;5.582;2023-04-24T13:44:24;16.50;57.70
71237;DHT22;58984;51.960;5.582;2023-04-24T13:46:53;16.40;57.70
71237;DHT22;58984;51.960;5.582;2023-04-24T13:49:20;16.50;57.70
71237;DHT22;58984;51.960;5.582;2023-04-24T13:51:46;16.50;57.60
71237;DHT22;58984;51.960;5.582;2023-04-24T13:54:11;16.50;57.70
71237;DHT22;58984;51.960;5.582;2023-04-24T13:56:38;16.50;57.70
71237;DHT22;58984;51.960;5.582;2023-04-24T13:59:04;16.60;57.30
71237;DHT22;58984;51.960;5.582;2023-04-24T14:01:30;16.60;57.60
71237;DHT22;58984;51.960;5.582;2023-04-24T14:03:56;16.50;57.50
71237;DHT22;58984;51.960;5.582;2023-04-24T14:06:22;16.60;57.70
71237;DHT22;58984;51.960;5.582;2023-04-24T14:08:49;16.60;57.70
71237;DHT22;58984;51.960;5.582;2023-04-24T14:11:15;16.60;57.70
71237;DHT22;58984;51.960;5.582;2023-04-24T14:13:42;16.60;57.70
71237;DHT22;58984;51.960;5.582;2023-04-24T14:16:08;16.60;57.80
71237;DHT22;58984;51.960;5.582;2023-04-24T14:18:34;16.60;57.90
71237;DHT22;58984;51.960;5.582;2023-04-24T14:21:00;16.60;58.00
71237;DHT22;58984;51.960;5.582;2023-04-24T14:23:27;16.70;58.20
71237;DHT22;58984;51.960;5.582;2023-04-24T14:25:52;16.70;58.20
71237;DHT22;58984;51.960;5.582;2023-04-24T14:28:19;16.70;58.20
71237;DHT22;58984;51.960;5.582;2023-04-24T14:30:46;16.70;58.10
71237;DHT22;58984;51.960;5.582;2023-04-24T14:33:11;16.70;58.10
71237;DHT22;58984;51.960;5.582;2023-04-24T14:35:38;16.80;58.00
71237;DHT22;58984;51.960;5.582;2023-04-24T14:38:03;16.70;58.00
71237;DHT22;58984;51.960;5.582;2023-04-24T14:40:29;16.80;57.90
71237;DHT22;58984;51.960;5.582;2023-04-24T14:42:56;16.80;58.00
71237;DHT22;58984;51.960;5.582;2023-04-24T14:45:23;16.80;57.70
71237;DHT22;58984;51.960;5.582;2023-04-24T14:47:49;16.80;57.80
71237;DHT22;58984;51.960;5.582;2023-04-24T14:50:14;16.80;57.80
71237;DHT22;58984;51.960;5.582;2023-04-24T14:52:40;16.80;57.70
71237;DHT22;58984;51.960;5.582;2023-04-24T14:55:06;16.90;57.60
71237;DHT22;58984;51.960;5.582;2023-04-24T14:57:32;16.80;57.40
71237;DHT22;58984;51.960;5.582;2023-04-24T14:59:58;16.90;57.50
71237;DHT22;58984;51.960;5.582;2023-04-24T15:02:24;16.80;57.20
71237;DHT22;58984;51.960;5.582;2023-04-24T15:04:49;16.90;57.60
71237;DHT22;58984;51.960;5.582;2023-04-24T15:07:15;16.90;57.70
71237;DHT22;58984;51.960;5.582;2023-04-24T15:09:40;16.90;57.50
71237;DHT22;58984;51.960;5.582;2023-04-24T15:12:07;16.90;57.30
71237;DHT22;58984;51.960;5.582;2023-04-24T15:14:33;16.90;57.30
71237;DHT22;58984;51.960;5.582;2023-04-24T15:16:59;16.90;57.20
71237;DHT22;58984;51.960;5.582;2023-04-24T15:19:24;16.80;57.00
71237;DHT22;58984;51.960;5.582;2023-04-24T15:21:50;16.90;57.00
71237;DHT22;58984;51.960;5.582;2023-04-24T15:24:15;16.90;56.70
71237;DHT22;58984;51.960;5.582;2023-04-24T15:26:41;16.90;56.40
71237;DHT22;58984;51.960;5.582;2023-04-24T15:29:06;16.90;56.00
71237;DHT22;58984;51.960;5.582;2023-04-24T15:31:32;16.90;56.00
71237;DHT22;58984;51.960;5.582;2023-04-24T15:33:57;16.90;56.20
71237;DHT22;58984;51.960;5.582;2023-04-24T15:36:23;16.90;56.20